sensor_id;sensor_type;location;lat;lon;timestamp;P1;durP1;ratioP1;P2;durP2;ratioP2
37284;SDS011;23172;53.550;9.964;2022-09-01T00:00:15;229.57;;;52.92;;
37284;SDS011;23172;53.550;9.964;2022-09-01T00:05:22;197.77;;;59.30;;
37284;SDS011;23172;53.550;9.964;2022-09-01T00:10:24;209.95;;;55.55;;
37284;SDS011;23172;53.550;9.964;2022-09-01T00:15:26;150.00;;;40.40;;
37284;SDS011;23172;53.550;9.964;2022-09-01T00:20:29;127.72;;;39.28;;
37284;SDS011;23172;53.550;9.964;2022-09-01T00:25:31;140.85;;;37.95;;
37284;SDS011;23172;53.550;9.964;2022-09-01T00:30:33;151.07;;;28.73;;
37284;SDS011;23172;53.550;9.964;2022-09-01T00:35:37;130.32;;;27.90;;
37284;SDS011;23172;53.550;9.964;2022-09-01T00:40:39;145.32;;;32.15;;
37284;SDS011;23172;53.550;9.964;2022-09-01T00:45:41;143.15;;;32.78;;
37284;SDS011;23172;53.550;9.964;2022-09-01T00:50:45;134.20;;;35.97;;
37284;SDS011;23172;53.550;9.964;2022-09-01T00:55:47;116.90;;;30.92;;
37284;SDS011;23172;53.550;9.964;2022-09-01T01:00:49;156.70;;;34.42;;
37284;SDS011;23172;53.550;9.964;2022-09-01T01:05:54;137.18;;;33.53;;
37284;SDS011;23172;53.550;9.964;2022-09-01T01:10:57;129.80;;;31.63;;
37284;SDS011;23172;53.550;9.964;2022-09-01T01:16:00;158.15;;;32.15;;
37284;SDS011;23172;53.550;9.964;2022-09-01T01:21:04;129.48;;;30.80;;
37284;SDS011;23172;53.550;9.964;2022-09-01T01:26:26;181.15;;;40.00;;
37284;SDS011;23172;53.550;9.964;2022-09-01T01:31:28;140.65;;;33.08;;
37284;SDS011;23172;53.550;9.964;2022-09-01T01:36:32;138.35;;;37.50;;
37284;SDS011;23172;53.550;9.964;2022-09-01T01:41:37;159.88;;;45.00;;
37284;SDS011;23172;53.550;9.964;2022-09-01T01:46:42;138.02;;;45.30;;
37284;SDS011;23172;53.550;9.964;2022-09-01T01:51:44;163.45;;;47.30;;
37284;SDS011;23172;53.550;9.964;2022-09-01T01:56:48;158.95;;;49.15;;
37284;SDS011;23172;53.550;9.964;2022-09-01T02:01:51;135.82;;;48.05;;
37284;SDS011;23172;53.550;9.964;2022-09-01T02:06:53;140.65;;;47.47;;
37284;SDS011;23172;53.550;9.964;2022-09-01T02:11:56;171.38;;;42.70;;
37284;SDS011;23172;53.550;9.964;2022-09-01T02:16:58;184.32;;;42.15;;
37284;SDS011;23172;53.550;9.964;2022-09-01T02:22:02;133.38;;;37.85;;
37284;SDS011;23172;53.550;9.964;2022-09-01T02:27:06;139.80;;;43.60;;
37284;SDS011;23172;53.550;9.964;2022-09-01T02:32:08;138.57;;;40.45;;
37284;SDS011;23172;53.550;9.964;2022-09-01T02:37:11;114.05;;;40.03;;
37284;SDS011;23172;53.550;9.964;2022-09-01T02:42:14;128.57;;;39.65;;
37284;SDS011;23172;53.550;9.964;2022-09-01T02:47:16;152.48;;;43.35;;
37284;SDS011;23172;53.550;9.964;2022-09-01T02:52:18;162.90;;;46.25;;
37284;SDS011;23172;53.550;9.964;2022-09-01T02:57:21;171.40;;;42.63;;
37284;SDS011;23172;53.550;9.964;2022-09-01T03:02:23;130.25;;;33.80;;
37284;SDS011;23172;53.550;9.964;2022-09-01T03:07:27;155.90;;;43.42;;
37284;SDS011;23172;53.550;9.964;2022-09-01T03:12:31;121.07;;;34.58;;
37284;SDS011;23172;53.550;9.964;2022-09-01T03:17:33;136.60;;;41.35;;
37284;SDS011;23172;53.550;9.964;2022-09-01T03:22:35;168.10;;;47.38;;
37284;SDS011;23172;53.550;9.964;2022-09-01T03:27:38;160.48;;;48.97;;
37284;SDS011;23172;53.550;9.964;2022-09-01T03:32:40;149.02;;;52.22;;
37284;SDS011;23172;53.550;9.964;2022-09-01T03:37:43;172.73;;;47.28;;
37284;SDS011;23172;53.550;9.964;2022-09-01T03:42:47;165.10;;;48.92;;
37284;SDS011;23172;53.550;9.964;2022-09-01T03:47:53;157.63;;;37.15;;
37284;SDS011;23172;53.550;9.964;2022-09-01T03:52:56;133.05;;;37.72;;
37284;SDS011;23172;53.550;9.964;2022-09-01T03:58:04;162.20;;;37.75;;
37284;SDS011;23172;53.550;9.964;2022-09-01T04:03:09;153.70;;;45.53;;
37284;SDS011;23172;53.550;9.964;2022-09-01T04:08:13;159.68;;;44.97;;
37284;SDS011;23172;53.550;9.964;2022-09-01T04:13:17;158.63;;;39.58;;
37284;SDS011;23172;53.550;9.964;2022-09-01T04:18:21;162.88;;;41.70;;
37284;SDS011;23172;53.550;9.964;2022-09-01T04:23:25;218.95;;;50.50;;
37284;SDS011;23172;53.550;9.964;2022-09-01T04:28:31;119.75;;;39.63;;
37284;SDS011;23172;53.550;9.964;2022-09-01T04:33:37;132.52;;;39.58;;
37284;SDS011;23172;53.550;9.964;2022-09-01T04:38:39;160.18;;;38.17;;
37284;SDS011;23172;53.550;9.964;2022-09-01T04:43:42;172.50;;;37.92;;
37284;SDS011;23172;53.550;9.964;2022-09-01T04:48:46;171.10;;;44.17;;
37284;SDS011;23172;53.550;9.964;2022-09-01T04:53:48;156.32;;;38.80;;
37284;SDS011;23172;53.550;9.964;2022-09-01T04:58:51;106.65;;;35.85;;
37284;SDS011;23172;53.550;9.964;2022-09-01T05:03:55;152.23;;;46.80;;
37284;SDS011;23172;53.550;9.964;2022-09-01T05:08:58;147.02;;;40.00;;
37284;SDS011;23172;53.550;9.964;2022-09-01T05:14:01;172.68;;;46.03;;
37284;SDS011;23172;53.550;9.964;2022-09-01T05:19:06;165.13;;;39.00;;
37284;SDS011;23172;53.550;9.964;2022-09-01T05:24:14;152.07;;;40.58;;
37284;SDS011;23172;53.550;9.964;2022-09-01T05:29:19;158.77;;;43.50;;
37284;SDS011;23172;53.550;9.964;2022-09-01T05:34:21;163.30;;;44.47;;
37284;SDS011;23172;53.550;9.964;2022-09-01T05:39:26;175.43;;;46.78;;
37284;SDS011;23172;53.550;9.964;2022-09-01T05:44:29;182.52;;;44.67;;
37284;SDS011;23172;53.550;9.964;2022-09-01T05:49:31;188.93;;;37.92;;
37284;SDS011;23172;53.550;9.964;2022-09-01T05:54:33;143.40;;;41.95;;
37284;SDS011;23172;53.550;9.964;2022-09-01T05:59:36;185.80;;;43.15;;
37284;SDS011;23172;53.550;9.964;2022-09-01T06:04:40;112.28;;;34.88;;
37284;SDS011;23172;53.550;9.964;2022-09-01T06:09:43;166.55;;;45.13;;
37284;SDS011;23172;53.550;9.964;2022-09-01T06:14:49;188.30;;;48.35;;
37284;SDS011;23172;53.550;9.964;2022-09-01T06:19:53;150.45;;;39.88;;
37284;SDS011;23172;53.550;9.964;2022-09-01T06:24:56;197.05;;;51.88;;
37284;SDS011;23172;53.550;9.964;2022-09-01T06:30:00;200.45;;;47.42;;
37284;SDS011;23172;53.550;9.964;2022-09-01T06:35:04;181.52;;;47.08;;
37284;SDS011;23172;53.550;9.964;2022-09-01T06:40:08;219.18;;;45.50;;
37284;SDS011;23172;53.550;9.964;2022-09-01T06:45:18;201.82;;;44.90;;
37284;SDS011;23172;53.550;9.964;2022-09-01T06:50:21;197.85;;;43.90;;
37284;SDS011;23172;53.550;9.964;2022-09-01T06:55:23;183.88;;;52.15;;
37284;SDS011;23172;53.550;9.964;2022-09-01T07:00:28;179.35;;;54.75;;
37284;SDS011;23172;53.550;9.964;2022-09-01T07:05:29;195.57;;;48.45;;
37284;SDS011;23172;53.550;9.964;2022-09-01T07:10:37;190.50;;;48.40;;
37284;SDS011;23172;53.550;9.964;2022-09-01T07:15:45;244.73;;;56.78;;
37284;SDS011;23172;53.550;9.964;2022-09-01T07:20:48;205.85;;;58.53;;
37284;SDS011;23172;53.550;9.964;2022-09-01T07:25:52;219.65;;;67.43;;
37284;SDS011;23172;53.550;9.964;2022-09-01T07:30:55;315.05;;;88.28;;
37284;SDS011;23172;53.550;9.964;2022-09-01T07:35:57;304.00;;;74.35;;
37284;SDS011;23172;53.550;9.964;2022-09-01T07:40:59;283.67;;;72.30;;
37284;SDS011;23172;53.550;9.964;2022-09-01T07:46:02;301.90;;;77.65;;
37284;SDS011;23172;53.550;9.964;2022-09-01T07:51:05;236.32;;;69.60;;
37284;SDS011;23172;53.550;9.964;2022-09-01T07:56:08;290.52;;;82.90;;
37284;SDS011;23172;53.550;9.964;2022-09-01T08:01:13;291.85;;;79.40;;
37284;SDS011;23172;53.550;9.964;2022-09-01T08:06:18;364.75;;;96.13;;
37284;SDS011;23172;53.550;9.964;2022-09-01T08:11:22;284.42;;;87.10;;
37284;SDS011;23172;53.550;9.964;2022-09-01T08:16:27;322.75;;;106.13;;
37284;SDS011;23172;53.550;9.964;2022-09-01T08:21:31;374.15;;;113.57;;
37284;SDS011;23172;53.550;9.964;2022-09-01T08:26:33;351.77;;;117.10;;
37284;SDS011;23172;53.550;9.964;2022-09-01T08:31:36;556.88;;;184.57;;
37284;SDS011;23172;53.550;9.964;2022-09-01T08:36:38;257.90;;;75.15;;
37284;SDS011;23172;53.550;9.964;2022-09-01T08:41:41;433.50;;;123.85;;
37284;SDS011;23172;53.550;9.964;2022-09-01T08:46:45;534.00;;;180.88;;
37284;SDS011;23172;53.550;9.964;2022-09-01T08:51:49;589.35;;;242.98;;
37284;SDS011;23172;53.550;9.964;2022-09-01T08:56:55;732.30;;;267.88;;
37284;SDS011;23172;53.550;9.964;2022-09-01T09:02:04;1323.55;;;509.45;;
37284;SDS011;23172;53.550;9.964;2022-09-01T09:07:21;1999.90;;;967.35;;
37284;SDS011;23172;53.550;9.964;2022-09-01T09:12:38;1447.30;;;721.60;;
37284;SDS011;23172;53.550;9.964;2022-09-01T09:17:53;428.35;;;184.25;;
37284;SDS011;23172;53.550;9.964;2022-09-01T09:22:59;1429.40;;;564.15;;
37284;SDS011;23172;53.550;9.964;2022-09-01T09:28:11;1999.90;;;999.90;;
37284;SDS011;23172;53.550;9.964;2022-09-01T09:38:35;599.08;;;274.35;;
37284;SDS011;23172;53.550;9.964;2022-09-01T09:43:41;446.92;;;182.00;;
37284;SDS011;23172;53.550;9.964;2022-09-01T09:48:49;1999.90;;;932.03;;
37284;SDS011;23172;53.550;9.964;2022-09-01T09:54:12;1999.90;;;999.90;;
37284;SDS011;23172;53.550;9.964;2022-09-01T09:59:26;806.03;;;446.17;;
37284;SDS011;23172;53.550;9.964;2022-09-01T10:04:33;1387.00;;;694.22;;
37284;SDS011;23172;53.550;9.964;2022-09-01T10:09:36;1263.90;;;669.00;;
37284;SDS011;23172;53.550;9.964;2022-09-01T10:14:40;1999.90;;;719.35;;
37284;SDS011;23172;53.550;9.964;2022-09-01T10:19:48;1999.90;;;829.78;;
37284;SDS011;23172;53.550;9.964;2022-09-01T10:24:54;1999.90;;;905.85;;
37284;SDS011;23172;53.550;9.964;2022-09-01T10:29:59;1660.47;;;587.22;;
37284;SDS011;23172;53.550;9.964;2022-09-01T10:35:08;948.78;;;415.98;;
37284;SDS011;23172;53.550;9.964;2022-09-01T10:40:19;1999.90;;;999.90;;
37284;SDS011;23172;53.550;9.964;2022-09-01T10:45:37;1999.90;;;999.90;;
37284;SDS011;23172;53.550;9.964;2022-09-01T10:50:41;1999.90;;;999.90;;
37284;SDS011;23172;53.550;9.964;2022-09-01T10:55:43;1999.90;;;705.53;;
37284;SDS011;23172;53.550;9.964;2022-09-01T11:00:59;1999.90;;;835.80;;
37284;SDS011;23172;53.550;9.964;2022-09-01T11:06:03;1999.90;;;911.85;;
37284;SDS011;23172;53.550;9.964;2022-09-01T11:11:08;1999.90;;;999.90;;
37284;SDS011;23172;53.550;9.964;2022-09-01T11:16:29;1999.90;;;999.90;;
37284;SDS011;23172;53.550;9.964;2022-09-01T11:21:34;1999.90;;;999.90;;
37284;SDS011;23172;53.550;9.964;2022-09-01T11:26:44;1999.90;;;999.90;;
37284;SDS011;23172;53.550;9.964;2022-09-01T11:31:47;1999.90;;;999.90;;
37284;SDS011;23172;53.550;9.964;2022-09-01T11:36:54;1999.90;;;999.90;;
37284;SDS011;23172;53.550;9.964;2022-09-01T11:42:00;1999.90;;;999.90;;
37284;SDS011;23172;53.550;9.964;2022-09-01T11:47:07;1999.90;;;999.90;;
37284;SDS011;23172;53.550;9.964;2022-09-01T11:52:17;1999.90;;;999.90;;
37284;SDS011;23172;53.550;9.964;2022-09-01T11:57:24;1999.90;;;999.90;;
37284;SDS011;23172;53.550;9.964;2022-09-01T12:02:29;1999.90;;;999.90;;
37284;SDS011;23172;53.550;9.964;2022-09-01T12:07:38;1999.90;;;999.90;;
37284;SDS011;23172;53.550;9.964;2022-09-01T12:12:45;1999.90;;;999.90;;
37284;SDS011;23172;53.550;9.964;2022-09-01T12:17:47;1999.90;;;999.90;;
37284;SDS011;23172;53.550;9.964;2022-09-01T12:22:51;1999.90;;;999.90;;
37284;SDS011;23172;53.550;9.964;2022-09-01T12:27:53;1999.90;;;999.90;;
37284;SDS011;23172;53.550;9.964;2022-09-01T12:32:55;1999.90;;;999.90;;
37284;SDS011;23172;53.550;9.964;2022-09-01T12:43:30;1999.90;;;999.90;;
37284;SDS011;23172;53.550;9.964;2022-09-01T12:48:35;1999.90;;;999.90;;
37284;SDS011;23172;53.550;9.964;2022-09-01T12:53:39;1999.90;;;999.90;;
37284;SDS011;23172;53.550;9.964;2022-09-01T12:58:50;1999.90;;;999.90;;
37284;SDS011;23172;53.550;9.964;2022-09-01T13:04:10;1999.90;;;999.90;;
37284;SDS011;23172;53.550;9.964;2022-09-01T13:09:16;1999.90;;;999.90;;
37284;SDS011;23172;53.550;9.964;2022-09-01T13:14:17;1999.90;;;999.90;;
37284;SDS011;23172;53.550;9.964;2022-09-01T13:19:19;1999.90;;;999.90;;
37284;SDS011;23172;53.550;9.964;2022-09-01T13:24:23;1999.90;;;999.90;;
37284;SDS011;23172;53.550;9.964;2022-09-01T13:29:25;1999.90;;;999.90;;
37284;SDS011;23172;53.550;9.964;2022-09-01T13:34:26;1999.90;;;999.90;;
37284;SDS011;23172;53.550;9.964;2022-09-01T13:39:30;1999.90;;;999.90;;
37284;SDS011;23172;53.550;9.964;2022-09-01T13:44:31;1999.90;;;999.90;;
37284;SDS011;23172;53.550;9.964;2022-09-01T13:49:33;1999.90;;;999.90;;
37284;SDS011;23172;53.550;9.964;2022-09-01T13:54:36;1999.90;;;999.90;;
37284;SDS011;23172;53.550;9.964;2022-09-01T13:59:38;1999.90;;;999.90;;
37284;SDS011;23172;53.550;9.964;2022-09-01T14:04:40;1999.90;;;999.90;;
37284;SDS011;23172;53.550;9.964;2022-09-01T14:09:44;1999.90;;;999.90;;
37284;SDS011;23172;53.550;9.964;2022-09-01T14:14:45;1999.90;;;999.90;;
37284;SDS011;23172;53.550;9.964;2022-09-01T14:19:48;1999.90;;;999.90;;
37284;SDS011;23172;53.550;9.964;2022-09-01T14:24:51;1999.90;;;999.90;;
37284;SDS011;23172;53.550;9.964;2022-09-01T14:29:53;1999.90;;;999.90;;
37284;SDS011;23172;53.550;9.964;2022-09-01T14:34:55;1999.90;;;999.90;;
37284;SDS011;23172;53.550;9.964;2022-09-01T14:39:59;1999.90;;;999.90;;
37284;SDS011;23172;53.550;9.964;2022-09-01T14:45:01;1999.90;;;999.90;;
37284;SDS011;23172;53.550;9.964;2022-09-01T14:50:04;1999.90;;;999.90;;
37284;SDS011;23172;53.550;9.964;2022-09-01T14:55:08;1999.90;;;999.90;;
37284;SDS011;23172;53.550;9.964;2022-09-01T15:00:10;1999.90;;;999.90;;
37284;SDS011;23172;53.550;9.964;2022-09-01T15:05:13;1999.90;;;999.90;;
37284;SDS011;23172;53.550;9.964;2022-09-01T15:10:17;1999.90;;;999.90;;
37284;SDS011;23172;53.550;9.964;2022-09-01T15:15:21;1999.90;;;999.90;;
37284;SDS011;23172;53.550;9.964;2022-09-01T15:20:23;1999.90;;;999.90;;
37284;SDS011;23172;53.550;9.964;2022-09-01T15:25:44;1999.90;;;999.90;;
37284;SDS011;23172;53.550;9.964;2022-09-01T15:30:47;1999.90;;;999.90;;
37284;SDS011;23172;53.550;9.964;2022-09-01T15:35:50;1923.93;;;911.78;;
37284;SDS011;23172;53.550;9.964;2022-09-01T15:40:53;1784.00;;;866.55;;
37284;SDS011;23172;53.550;9.964;2022-09-01T15:45:56;1318.00;;;670.83;;
37284;SDS011;23172;53.550;9.964;2022-09-01T15:51:01;978.03;;;546.80;;
37284;SDS011;23172;53.550;9.964;2022-09-01T15:56:28;953.25;;;476.85;;
37284;SDS011;23172;53.550;9.964;2022-09-01T16:01:31;991.28;;;502.02;;
37284;SDS011;23172;53.550;9.964;2022-09-01T16:06:35;1040.43;;;569.75;;
37284;SDS011;23172;53.550;9.964;2022-09-01T16:11:39;820.75;;;404.65;;
37284;SDS011;23172;53.550;9.964;2022-09-01T16:16:44;738.72;;;356.75;;
37284;SDS011;23172;53.550;9.964;2022-09-01T16:21:53;690.47;;;315.50;;
37284;SDS011;23172;53.550;9.964;2022-09-01T16:27:04;566.63;;;256.67;;
37284;SDS011;23172;53.550;9.964;2022-09-01T16:32:09;564.97;;;260.50;;
37284;SDS011;23172;53.550;9.964;2022-09-01T16:37:15;450.70;;;191.55;;
37284;SDS011;23172;53.550;9.964;2022-09-01T16:42:28;632.47;;;284.50;;
37284;SDS011;23172;53.550;9.964;2022-09-01T16:47:43;594.67;;;286.13;;
37284;SDS011;23172;53.550;9.964;2022-09-01T16:53:02;568.13;;;251.00;;
37284;SDS011;23172;53.550;9.964;2022-09-01T16:58:13;465.55;;;175.63;;
37284;SDS011;23172;53.550;9.964;2022-09-01T17:03:22;397.90;;;164.48;;
37284;SDS011;23172;53.550;9.964;2022-09-01T17:08:30;135.65;;;50.47;;
37284;SDS011;23172;53.550;9.964;2022-09-01T17:13:35;95.65;;;32.45;;
37284;SDS011;23172;53.550;9.964;2022-09-01T17:18:41;249.60;;;89.82;;
37284;SDS011;23172;53.550;9.964;2022-09-01T17:23:49;183.13;;;50.72;;
37284;SDS011;23172;53.550;9.964;2022-09-01T17:28:59;161.85;;;45.88;;
37284;SDS011;23172;53.550;9.964;2022-09-01T17:34:07;141.18;;;42.20;;
37284;SDS011;23172;53.550;9.964;2022-09-01T17:39:20;174.73;;;49.92;;
37284;SDS011;23172;53.550;9.964;2022-09-01T17:44:36;119.47;;;37.05;;
37284;SDS011;23172;53.550;9.964;2022-09-01T17:49:46;114.72;;;32.55;;
37284;SDS011;23172;53.550;9.964;2022-09-01T17:54:54;136.25;;;40.08;;
37284;SDS011;23172;53.550;9.964;2022-09-01T18:00:05;215.25;;;58.45;;
37284;SDS011;23172;53.550;9.964;2022-09-01T18:05:10;135.93;;;45.13;;
37284;SDS011;23172;53.550;9.964;2022-09-01T18:10:14;207.52;;;65.35;;
37284;SDS011;23172;53.550;9.964;2022-09-01T18:15:22;179.73;;;43.55;;
37284;SDS011;23172;53.550;9.964;2022-09-01T18:20:25;209.52;;;71.70;;
37284;SDS011;23172;53.550;9.964;2022-09-01T18:25:37;215.50;;;60.63;;
37284;SDS011;23172;53.550;9.964;2022-09-01T18:30:43;152.05;;;38.53;;
37284;SDS011;23172;53.550;9.964;2022-09-01T18:35:53;183.77;;;42.95;;
37284;SDS011;23172;53.550;9.964;2022-09-01T18:41:18;136.23;;;39.88;;
37284;SDS011;23172;53.550;9.964;2022-09-01T18:46:31;191.00;;;54.47;;
37284;SDS011;23172;53.550;9.964;2022-09-01T18:51:46;204.25;;;42.42;;
37284;SDS011;23172;53.550;9.964;2022-09-01T18:56:55;131.57;;;41.67;;
37284;SDS011;23172;53.550;9.964;2022-09-01T19:02:04;164.43;;;41.03;;
37284;SDS011;23172;53.550;9.964;2022-09-01T19:07:17;157.70;;;46.03;;
37284;SDS011;23172;53.550;9.964;2022-09-01T19:12:29;160.75;;;49.35;;
37284;SDS011;23172;53.550;9.964;2022-09-01T19:17:51;219.85;;;61.92;;
37284;SDS011;23172;53.550;9.964;2022-09-01T19:23:06;139.15;;;37.63;;
37284;SDS011;23172;53.550;9.964;2022-09-01T19:28:16;161.38;;;43.83;;
37284;SDS011;23172;53.550;9.964;2022-09-01T19:33:25;315.33;;;80.97;;
37284;SDS011;23172;53.550;9.964;2022-09-01T19:38:29;253.73;;;75.07;;
37284;SDS011;23172;53.550;9.964;2022-09-01T19:43:32;162.18;;;53.33;;
37284;SDS011;23172;53.550;9.964;2022-09-01T19:48:40;163.05;;;43.85;;
37284;SDS011;23172;53.550;9.964;2022-09-01T19:53:48;222.98;;;69.47;;
37284;SDS011;23172;53.550;9.964;2022-09-01T19:58:55;297.92;;;90.85;;
37284;SDS011;23172;53.550;9.964;2022-09-01T20:04:09;269.75;;;76.32;;
37284;SDS011;23172;53.550;9.964;2022-09-01T20:09:18;177.05;;;47.38;;
37284;SDS011;23172;53.550;9.964;2022-09-01T20:14:32;167.45;;;51.03;;
37284;SDS011;23172;53.550;9.964;2022-09-01T20:19:46;235.60;;;69.13;;
37284;SDS011;23172;53.550;9.964;2022-09-01T20:24:54;195.48;;;57.17;;
37284;SDS011;23172;53.550;9.964;2022-09-01T20:30:10;220.38;;;58.30;;
37284;SDS011;23172;53.550;9.964;2022-09-01T20:35:15;184.52;;;47.03;;
37284;SDS011;23172;53.550;9.964;2022-09-01T20:40:21;169.18;;;45.08;;
37284;SDS011;23172;53.550;9.964;2022-09-01T20:45:28;194.73;;;54.50;;
37284;SDS011;23172;53.550;9.964;2022-09-01T20:50:35;183.75;;;52.47;;
37284;SDS011;23172;53.550;9.964;2022-09-01T20:55:40;164.63;;;39.28;;
37284;SDS011;23172;53.550;9.964;2022-09-01T21:00:49;139.20;;;36.72;;
37284;SDS011;23172;53.550;9.964;2022-09-01T21:05:57;189.57;;;55.97;;
37284;SDS011;23172;53.550;9.964;2022-09-01T21:16:39;195.30;;;56.03;;
37284;SDS011;23172;53.550;9.964;2022-09-01T21:21:53;164.70;;;50.17;;
37284;SDS011;23172;53.550;9.964;2022-09-01T21:27:02;242.73;;;67.95;;
37284;SDS011;23172;53.550;9.964;2022-09-01T21:32:08;157.70;;;44.58;;
37284;SDS011;23172;53.550;9.964;2022-09-01T21:37:12;212.95;;;49.55;;
37284;SDS011;23172;53.550;9.964;2022-09-01T21:42:14;276.23;;;68.22;;
37284;SDS011;23172;53.550;9.964;2022-09-01T21:47:16;195.55;;;53.10;;
37284;SDS011;23172;53.550;9.964;2022-09-01T21:52:20;180.50;;;62.97;;
37284;SDS011;23172;53.550;9.964;2022-09-01T21:57:25;244.45;;;73.60;;
37284;SDS011;23172;53.550;9.964;2022-09-01T22:02:27;253.63;;;73.72;;
37284;SDS011;23172;53.550;9.964;2022-09-01T22:07:32;268.60;;;69.82;;
37284;SDS011;23172;53.550;9.964;2022-09-01T22:12:38;272.05;;;87.13;;
37284;SDS011;23172;53.550;9.964;2022-09-01T22:17:41;235.52;;;77.90;;
37284;SDS011;23172;53.550;9.964;2022-09-01T22:22:45;216.95;;;79.60;;
37284;SDS011;23172;53.550;9.964;2022-09-01T22:27:47;252.57;;;78.75;;
37284;SDS011;23172;53.550;9.964;2022-09-01T22:32:51;280.77;;;91.05;;
37284;SDS011;23172;53.550;9.964;2022-09-01T22:37:54;237.48;;;79.35;;
37284;SDS011;23172;53.550;9.964;2022-09-01T22:42:56;274.02;;;95.97;;
37284;SDS011;23172;53.550;9.964;2022-09-01T22:47:58;216.38;;;69.50;;
37284;SDS011;23172;53.550;9.964;2022-09-01T22:53:02;189.73;;;67.93;;
37284;SDS011;23172;53.550;9.964;2022-09-01T22:58:04;214.23;;;66.10;;
37284;SDS011;23172;53.550;9.964;2022-09-01T23:03:07;228.40;;;75.78;;
37284;SDS011;23172;53.550;9.964;2022-09-01T23:08:10;240.95;;;83.10;;
37284;SDS011;23172;53.550;9.964;2022-09-01T23:13:12;248.68;;;71.97;;
37284;SDS011;23172;53.550;9.964;2022-09-01T23:18:14;282.58;;;81.55;;
37284;SDS011;23172;53.550;9.964;2022-09-01T23:23:18;227.90;;;77.18;;
37284;SDS011;23172;53.550;9.964;2022-09-01T23:28:20;217.25;;;67.32;;
37284;SDS011;23172;53.550;9.964;2022-09-01T23:33:25;285.02;;;95.78;;
37284;SDS011;23172;53.550;9.964;2022-09-01T23:38:30;233.18;;;78.38;;
37284;SDS011;23172;53.550;9.964;2022-09-01T23:43:32;221.75;;;80.00;;
37284;SDS011;23172;53.550;9.964;2022-09-01T23:48:34;234.95;;;76.30;;
37284;SDS011;23172;53.550;9.964;2022-09-01T23:53:37;249.52;;;76.03;;
37284;SDS011;23172;53.550;9.964;2022-09-01T23:58:39;187.00;;;70.00;;
